Overview Statistics Trail Chart Weather Telemetry Raw packets
 

This is the latest recevied weather packets stored in our database for station/object EA5JMY-10. If no packets are shown the sender has not sent any weather packets the latest 10 day(s).

<< 10 11 12 13 14 15 16 >>
Time Temp. Humidity Pressure Rain* Wind** Luminosity Snow
1788364527 31.67° C 57% 1021 hPa - - - -
1788363627 32.22° C 53% 1021.2 hPa - - - -
1788362727 32.22° C 54% 1021.3 hPa - - - -
1788361852 31.67° C 56% 1021.4 hPa - - - -
1788360927 32.22° C 54% 1021.4 hPa - - - -
1788360026 32.22° C 54% 1021.7 hPa - - - -
1788359126 32.78° C 53% 1021.6 hPa - - - -
1788358226 32.22° C 53% 1021.7 hPa - - - -
1788357326 32.78° C 52% 1021.8 hPa - - - -
1788356426 32.78° C 52% 1022.1 hPa - - - -
1788355526 32.78° C 51% 1022.2 hPa - - - -
1788354632 31.67° C 54% 1022.3 hPa - - - -
1788353726 31.67° C 53% 1022.4 hPa - - - -
1788352826 32.22° C 53% 1022.4 hPa - - - -
1788351925 32.22° C 53% 1022.4 hPa - - - -
1788351025 32.22° C 52% 1022.3 hPa - - - -
1788350125 32.78° C 50% 1022.5 hPa - - - -
1788349225 33.89° C 48% 1022.6 hPa - - - -
1788348325 35° C 44% 1022.7 hPa - - - -
1788347425 35.56° C 42% 1022.7 hPa - - - -
1788346525 35.56° C 43% 1022.8 hPa - - - -
1788345625 32.78° C 49% 1022.7 hPa - - - -
1788344724 32.78° C 48% 1022.7 hPa - - - -
1788343824 35.56° C 42% 1022.7 hPa - - - -
1788342924 36.11° C 40% 1022.8 hPa - - - -

* Rain since midnight (hover to see other rain measurements)
** Current wind speed in m/s (hover to see current wind gust speed)